RYR53CB EPKK-EDJA
Flight info
| Callsign | RYR53CB |
|---|---|
| Flight time | 1h 9m |
| Altitude | 38000 |
| Route | TUSIN DCT MIKOV DCT SBG DCT TRAUN L856 KPT KPT1D |
| Aircraft | B738/M-SDE3FGILRWY/SB1 |
Departure
| Time | 2026-05-06 11:05 |
|---|---|
| Airport | Kraków John Paul II International Airport (EPKK) |
Arrival
| Time | 2026-05-06 12:15 |
|---|---|
| Airport | Memmingen Allgau Airport (EDJA) |
| Time | Latitude | Longitude | Altitude | Speed | Heading |
|---|---|---|---|---|---|
| 2026-05-06 10:52 | 50.07576 | 19.80098 | 799 ft | 0 kts | 347° |
| 2026-05-06 11:02 | 50.07579 | 19.80097 | 799 ft | 2 kts | 347° |
| 2026-05-06 11:02 | 50.07622 | 19.80104 | 799 ft | 10 kts | 39° |
| 2026-05-06 11:03 | 50.07648 | 19.80243 | 799 ft | 16 kts | 77° |
| 2026-05-06 11:03 | 50.07687 | 19.80385 | 799 ft | 12 kts | 8° |
| 2026-05-06 11:03 | 50.07769 | 19.80360 | 799 ft | 12 kts | 346° |
| 2026-05-06 11:03 | 50.07850 | 19.80334 | 799 ft | 12 kts | 348° |
| 2026-05-06 11:04 | 50.07929 | 19.80308 | 799 ft | 11 kts | 348° |
| 2026-05-06 11:04 | 50.08005 | 19.80278 | 799 ft | 11 kts | 324° |
| 2026-05-06 11:04 | 50.08008 | 19.80163 | 800 ft | 13 kts | 258° |
| 2026-05-06 11:04 | 50.07950 | 19.79750 | 799 ft | 75 kts | 258° |
| 2026-05-06 11:05 | 50.07792 | 19.78611 | 802 ft | 138 kts | 257° |
| 2026-05-06 11:05 | 50.07574 | 19.77025 | 1207 ft | 153 kts | 261° |
| 2026-05-06 11:05 | 50.07345 | 19.75345 | 1987 ft | 164 kts | 251° |
| 2026-05-06 11:05 | 50.07088 | 19.73612 | 2728 ft | 176 kts | 253° |
| 2026-05-06 11:06 | 50.06797 | 19.71560 | 3185 ft | 203 kts | 252° |
| 2026-05-06 11:06 | 50.06482 | 19.69348 | 3772 ft | 212 kts | 250° |
| 2026-05-06 11:06 | 50.06057 | 19.67085 | 4392 ft | 230 kts | 249° |
| 2026-05-06 11:06 | 50.05556 | 19.64544 | 4784 ft | 262 kts | 249° |
| 2026-05-06 11:07 | 50.05001 | 19.61645 | 5077 ft | 297 kts | 251° |
| 2026-05-06 11:07 | 50.04404 | 19.58453 | 5687 ft | 316 kts | 251° |
| 2026-05-06 11:07 | 50.03775 | 19.55149 | 6751 ft | 318 kts | 250° |
| 2026-05-06 11:07 | 50.03140 | 19.51840 | 7733 ft | 320 kts | 251° |
| 2026-05-06 11:08 | 50.02504 | 19.48503 | 8794 ft | 323 kts | 251° |
| 2026-05-06 11:08 | 50.01859 | 19.45135 | 9696 ft | 329 kts | 251° |
| 2026-05-06 11:08 | 50.01193 | 19.41709 | 10645 ft | 331 kts | 251° |
| 2026-05-06 11:08 | 50.00528 | 19.38250 | 11468 ft | 337 kts | 251° |
| 2026-05-06 11:09 | 49.99857 | 19.34726 | 12274 ft | 342 kts | 251° |
| 2026-05-06 11:09 | 49.99180 | 19.31170 | 13178 ft | 345 kts | 251° |
| 2026-05-06 11:09 | 49.98490 | 19.27561 | 13956 ft | 351 kts | 251° |
| 2026-05-06 11:09 | 49.97793 | 19.23918 | 14759 ft | 353 kts | 251° |
| 2026-05-06 11:10 | 49.97085 | 19.20240 | 15529 ft | 357 kts | 251° |
| 2026-05-06 11:10 | 49.96367 | 19.16520 | 16216 ft | 361 kts | 251° |
| 2026-05-06 11:10 | 49.95641 | 19.12769 | 16935 ft | 365 kts | 251° |
| 2026-05-06 11:10 | 49.94906 | 19.08976 | 17634 ft | 368 kts | 251° |
| 2026-05-06 11:11 | 49.94164 | 19.05151 | 18326 ft | 372 kts | 250° |
| 2026-05-06 11:11 | 49.93411 | 19.01280 | 18901 ft | 376 kts | 251° |
| 2026-05-06 11:11 | 49.92649 | 18.97368 | 19485 ft | 381 kts | 251° |
| 2026-05-06 11:11 | 49.91878 | 18.93421 | 20075 ft | 384 kts | 251° |
| 2026-05-06 11:12 | 49.91102 | 18.89452 | 20692 ft | 386 kts | 251° |
| 2026-05-06 11:12 | 49.90317 | 18.85452 | 21253 ft | 389 kts | 251° |
| 2026-05-06 11:12 | 49.89526 | 18.81422 | 21813 ft | 393 kts | 252° |
| 2026-05-06 11:12 | 49.88725 | 18.77354 | 22369 ft | 396 kts | 252° |
| 2026-05-06 11:13 | 49.87915 | 18.73249 | 22903 ft | 400 kts | 252° |
| 2026-05-06 11:13 | 49.87098 | 18.69111 | 23439 ft | 403 kts | 252° |
| 2026-05-06 11:13 | 49.86273 | 18.64949 | 23917 ft | 406 kts | 252° |
| 2026-05-06 11:13 | 49.85415 | 18.60771 | 24364 ft | 408 kts | 248° |
| 2026-05-06 11:14 | 49.84222 | 18.56774 | 24783 ft | 410 kts | 240° |
| 2026-05-06 11:14 | 49.82651 | 18.53084 | 25026 ft | 412 kts | 232° |
| 2026-05-06 11:14 | 49.80840 | 18.49622 | 25446 ft | 415 kts | 231° |
| 2026-05-06 11:14 | 49.78971 | 18.46126 | 25864 ft | 417 kts | 230° |
| 2026-05-06 11:15 | 49.77111 | 18.42665 | 26298 ft | 419 kts | 230° |
| 2026-05-06 11:15 | 49.75247 | 18.39188 | 26681 ft | 422 kts | 230° |
| 2026-05-06 11:15 | 49.73374 | 18.35680 | 27064 ft | 424 kts | 230° |
| 2026-05-06 11:15 | 49.71499 | 18.32160 | 27477 ft | 425 kts | 231° |
| 2026-05-06 11:16 | 49.69616 | 18.28617 | 27831 ft | 428 kts | 231° |
| 2026-05-06 11:16 | 49.67723 | 18.25054 | 28157 ft | 431 kts | 231° |
| 2026-05-06 11:16 | 49.65819 | 18.21471 | 28544 ft | 432 kts | 231° |
| 2026-05-06 11:16 | 49.63906 | 18.17873 | 28917 ft | 434 kts | 231° |
| 2026-05-06 11:17 | 49.61985 | 18.14268 | 29249 ft | 436 kts | 231° |
| 2026-05-06 11:17 | 49.60055 | 18.10648 | 29601 ft | 438 kts | 230° |
| 2026-05-06 11:17 | 49.58121 | 18.07029 | 30074 ft | 435 kts | 230° |
| 2026-05-06 11:17 | 49.56205 | 18.03447 | 30536 ft | 433 kts | 231° |
| 2026-05-06 11:18 | 49.54290 | 17.99872 | 30918 ft | 432 kts | 231° |
| 2026-05-06 11:18 | 49.52376 | 17.96305 | 31266 ft | 432 kts | 231° |
| 2026-05-06 11:18 | 49.50460 | 17.92737 | 31635 ft | 432 kts | 231° |
| 2026-05-06 11:18 | 49.48548 | 17.89183 | 32033 ft | 430 kts | 231° |
| 2026-05-06 11:19 | 49.46642 | 17.85645 | 32406 ft | 429 kts | 231° |
| 2026-05-06 11:19 | 49.44738 | 17.82114 | 32768 ft | 429 kts | 231° |
| 2026-05-06 11:19 | 49.42839 | 17.78598 | 33153 ft | 428 kts | 231° |
| 2026-05-06 11:19 | 49.40940 | 17.75087 | 33552 ft | 426 kts | 231° |
| 2026-05-06 11:20 | 49.39048 | 17.71594 | 33920 ft | 425 kts | 231° |
| 2026-05-06 11:20 | 49.37161 | 17.68114 | 34213 ft | 425 kts | 231° |
| 2026-05-06 11:20 | 49.35271 | 17.64632 | 34472 ft | 425 kts | 231° |
| 2026-05-06 11:20 | 49.33377 | 17.61149 | 34775 ft | 424 kts | 231° |
| 2026-05-06 11:21 | 49.31467 | 17.57640 | 35093 ft | 423 kts | 231° |
| 2026-05-06 11:21 | 49.29587 | 17.54192 | 35353 ft | 422 kts | 231° |
| 2026-05-06 11:21 | 49.27701 | 17.50736 | 35637 ft | 422 kts | 231° |
| 2026-05-06 11:21 | 49.25820 | 17.47295 | 35910 ft | 421 kts | 231° |
| 2026-05-06 11:22 | 49.23941 | 17.43861 | 36193 ft | 420 kts | 231° |
| 2026-05-06 11:22 | 49.22066 | 17.40440 | 36475 ft | 419 kts | 231° |
| 2026-05-06 11:22 | 49.20192 | 17.37023 | 36707 ft | 419 kts | 231° |
| 2026-05-06 11:22 | 49.18316 | 17.33608 | 36971 ft | 419 kts | 230° |
| 2026-05-06 11:23 | 49.16447 | 17.30212 | 37262 ft | 417 kts | 230° |
| 2026-05-06 11:23 | 49.14579 | 17.26820 | 37551 ft | 416 kts | 230° |
| 2026-05-06 11:23 | 49.12719 | 17.23447 | 37791 ft | 415 kts | 230° |
| 2026-05-06 11:24 | 49.08986 | 17.16692 | 37855 ft | 417 kts | 230° |
| 2026-05-06 11:24 | 49.05248 | 17.09944 | 37854 ft | 415 kts | 230° |
| 2026-05-06 11:25 | 49.01523 | 17.03236 | 37835 ft | 414 kts | 230° |
| 2026-05-06 11:25 | 48.97805 | 16.96559 | 37836 ft | 413 kts | 230° |
| 2026-05-06 11:26 | 48.94094 | 16.89911 | 37831 ft | 412 kts | 230° |
| 2026-05-06 11:26 | 48.90384 | 16.83280 | 37837 ft | 411 kts | 230° |
| 2026-05-06 11:27 | 48.86674 | 16.76664 | 37834 ft | 411 kts | 230° |
| 2026-05-06 11:27 | 48.82958 | 16.70053 | 37832 ft | 412 kts | 230° |
| 2026-05-06 11:28 | 48.79414 | 16.63238 | 37832 ft | 412 kts | 239° |
| 2026-05-06 11:28 | 48.77074 | 16.55264 | 37836 ft | 414 kts | 252° |
| 2026-05-06 11:29 | 48.75484 | 16.46878 | 37837 ft | 415 kts | 253° |
| 2026-05-06 11:29 | 48.74173 | 16.39878 | 37832 ft | 415 kts | 252° |
| 2026-05-06 11:30 | 48.72572 | 16.31470 | 37830 ft | 416 kts | 252° |
| 2026-05-06 11:30 | 48.70945 | 16.23055 | 37828 ft | 416 kts | 252° |
| 2026-05-06 11:31 | 48.69307 | 16.14650 | 37830 ft | 417 kts | 252° |
| 2026-05-06 11:31 | 48.67661 | 16.06245 | 37817 ft | 417 kts | 252° |
| 2026-05-06 11:32 | 48.66009 | 15.97846 | 37825 ft | 416 kts | 252° |
| 2026-05-06 11:32 | 48.64355 | 15.89472 | 37814 ft | 415 kts | 252° |
| 2026-05-06 11:33 | 48.62684 | 15.81053 | 37816 ft | 415 kts | 252° |
| 2026-05-06 11:33 | 48.61022 | 15.72713 | 37814 ft | 414 kts | 252° |
| 2026-05-06 11:34 | 48.59356 | 15.64386 | 37812 ft | 414 kts | 251° |
| 2026-05-06 11:34 | 48.57685 | 15.56069 | 37807 ft | 414 kts | 251° |
| 2026-05-06 11:35 | 48.56009 | 15.47766 | 37805 ft | 414 kts | 251° |
| 2026-05-06 11:35 | 48.54325 | 15.39456 | 37803 ft | 414 kts | 251° |
| 2026-05-06 11:36 | 48.52636 | 15.31160 | 37811 ft | 414 kts | 251° |
| 2026-05-06 11:36 | 48.50938 | 15.22851 | 37803 ft | 415 kts | 251° |
| 2026-05-06 11:37 | 48.49233 | 15.14539 | 37808 ft | 415 kts | 251° |
| 2026-05-06 11:37 | 48.47519 | 15.06227 | 37813 ft | 416 kts | 251° |
| 2026-05-06 11:38 | 48.45798 | 14.97909 | 37803 ft | 416 kts | 251° |
| 2026-05-06 11:38 | 48.44069 | 14.89587 | 37804 ft | 416 kts | 251° |
| 2026-05-06 11:39 | 48.42333 | 14.81267 | 37803 ft | 417 kts | 251° |
| 2026-05-06 11:39 | 48.40590 | 14.72951 | 37801 ft | 417 kts | 251° |
| 2026-05-06 11:40 | 48.38831 | 14.64587 | 37807 ft | 416 kts | 250° |
| 2026-05-06 11:40 | 48.37077 | 14.56285 | 37792 ft | 416 kts | 250° |
| 2026-05-06 11:41 | 48.35318 | 14.47998 | 37795 ft | 416 kts | 250° |
| 2026-05-06 11:41 | 48.33557 | 14.39729 | 37804 ft | 415 kts | 250° |
| 2026-05-06 11:42 | 48.31792 | 14.31472 | 37805 ft | 414 kts | 250° |
| 2026-05-06 11:42 | 48.30025 | 14.23246 | 37803 ft | 414 kts | 250° |
| 2026-05-06 11:43 | 48.28253 | 14.15027 | 37805 ft | 413 kts | 250° |
| 2026-05-06 11:43 | 48.26481 | 14.06840 | 37806 ft | 412 kts | 250° |
| 2026-05-06 11:44 | 48.23817 | 13.94593 | 37803 ft | 411 kts | 250° |
| 2026-05-06 11:44 | 48.22037 | 13.86447 | 37800 ft | 412 kts | 250° |
| 2026-05-06 11:45 | 48.20246 | 13.78289 | 37793 ft | 411 kts | 249° |
| 2026-05-06 11:45 | 48.18457 | 13.70163 | 37795 ft | 410 kts | 249° |
| 2026-05-06 11:46 | 48.16665 | 13.62062 | 37795 ft | 409 kts | 249° |
| 2026-05-06 11:46 | 48.14860 | 13.53934 | 37790 ft | 409 kts | 249° |
| 2026-05-06 11:47 | 48.13063 | 13.45869 | 37797 ft | 409 kts | 249° |
| 2026-05-06 11:47 | 48.11249 | 13.37767 | 37790 ft | 411 kts | 249° |
| 2026-05-06 11:48 | 48.09415 | 13.29602 | 37273 ft | 419 kts | 249° |
| 2026-05-06 11:48 | 48.08489 | 13.25488 | 36708 ft | 415 kts | 249° |
| 2026-05-06 11:48 | 48.07570 | 13.21413 | 36153 ft | 411 kts | 249° |
| 2026-05-06 11:49 | 48.06660 | 13.17385 | 35533 ft | 409 kts | 248° |
| 2026-05-06 11:49 | 48.05750 | 13.13363 | 35029 ft | 404 kts | 248° |
| 2026-05-06 11:49 | 48.04862 | 13.09446 | 34513 ft | 399 kts | 248° |
| 2026-05-06 11:49 | 48.03974 | 13.05541 | 34057 ft | 394 kts | 248° |
| 2026-05-06 11:50 | 48.03096 | 13.01687 | 33526 ft | 390 kts | 248° |
| 2026-05-06 11:50 | 48.02227 | 12.97875 | 33017 ft | 386 kts | 248° |
| 2026-05-06 11:50 | 48.01364 | 12.94099 | 32571 ft | 380 kts | 248° |
| 2026-05-06 11:50 | 48.00532 | 12.90372 | 32110 ft | 376 kts | 250° |
| 2026-05-06 11:51 | 47.99962 | 12.86565 | 31658 ft | 377 kts | 257° |
| 2026-05-06 11:51 | 47.99628 | 12.82700 | 31225 ft | 373 kts | 257° |
| 2026-05-06 11:51 | 47.99300 | 12.78882 | 30789 ft | 370 kts | 257° |
| 2026-05-06 11:51 | 47.98967 | 12.75089 | 30362 ft | 366 kts | 257° |
| 2026-05-06 11:52 | 47.98629 | 12.71333 | 29944 ft | 364 kts | 257° |
| 2026-05-06 11:52 | 47.98290 | 12.67609 | 29466 ft | 361 kts | 257° |
| 2026-05-06 11:52 | 47.97951 | 12.63908 | 28992 ft | 358 kts | 257° |
| 2026-05-06 11:52 | 47.97614 | 12.60256 | 28573 ft | 354 kts | 257° |
| 2026-05-06 11:53 | 47.97278 | 12.56632 | 28123 ft | 351 kts | 257° |
| 2026-05-06 11:53 | 47.96948 | 12.53046 | 27688 ft | 347 kts | 257° |
| 2026-05-06 11:53 | 47.96616 | 12.49447 | 27258 ft | 344 kts | 257° |
| 2026-05-06 11:53 | 47.96290 | 12.45918 | 26843 ft | 342 kts | 257° |
| 2026-05-06 11:54 | 47.95965 | 12.42419 | 26426 ft | 339 kts | 257° |
| 2026-05-06 11:54 | 47.95642 | 12.38960 | 26020 ft | 337 kts | 256° |
| 2026-05-06 11:54 | 47.95319 | 12.35501 | 25625 ft | 335 kts | 256° |
| 2026-05-06 11:54 | 47.94997 | 12.32077 | 25220 ft | 333 kts | 256° |
| 2026-05-06 11:55 | 47.94677 | 12.28671 | 24818 ft | 331 kts | 256° |
| 2026-05-06 11:55 | 47.94357 | 12.25278 | 24421 ft | 330 kts | 256° |
| 2026-05-06 11:55 | 47.94036 | 12.21894 | 24028 ft | 328 kts | 256° |
| 2026-05-06 11:55 | 47.93721 | 12.18584 | 23637 ft | 327 kts | 256° |
| 2026-05-06 11:56 | 47.93392 | 12.15176 | 23198 ft | 327 kts | 256° |
| 2026-05-06 11:56 | 47.93067 | 12.11833 | 22753 ft | 325 kts | 256° |
| 2026-05-06 11:56 | 47.92743 | 12.08501 | 22333 ft | 324 kts | 256° |
| 2026-05-06 11:56 | 47.92421 | 12.05190 | 21934 ft | 322 kts | 256° |
| 2026-05-06 11:57 | 47.92099 | 12.01902 | 21533 ft | 320 kts | 256° |
| 2026-05-06 11:57 | 47.91779 | 11.98633 | 21150 ft | 318 kts | 256° |
| 2026-05-06 11:57 | 47.91459 | 11.95377 | 20764 ft | 316 kts | 256° |
| 2026-05-06 11:57 | 47.91140 | 11.92142 | 20385 ft | 315 kts | 256° |
| 2026-05-06 11:58 | 47.90824 | 11.88933 | 20007 ft | 314 kts | 256° |
| 2026-05-06 11:58 | 47.90505 | 11.85713 | 19629 ft | 313 kts | 256° |
| 2026-05-06 11:58 | 47.90187 | 11.82517 | 19257 ft | 312 kts | 256° |
| 2026-05-06 11:58 | 47.89869 | 11.79325 | 18848 ft | 312 kts | 256° |
| 2026-05-06 11:59 | 47.89543 | 11.76077 | 18131 ft | 323 kts | 256° |
| 2026-05-06 11:59 | 47.89211 | 11.72759 | 17639 ft | 323 kts | 256° |
| 2026-05-06 11:59 | 47.88883 | 11.69455 | 17217 ft | 321 kts | 256° |
| 2026-05-06 11:59 | 47.88557 | 11.66175 | 16853 ft | 318 kts | 256° |
| 2026-05-06 12:00 | 47.88235 | 11.62937 | 16509 ft | 314 kts | 256° |
| 2026-05-06 12:00 | 47.87914 | 11.59730 | 16155 ft | 311 kts | 256° |
| 2026-05-06 12:00 | 47.87591 | 11.56520 | 15829 ft | 307 kts | 256° |
| 2026-05-06 12:00 | 47.87274 | 11.53386 | 15498 ft | 304 kts | 256° |
| 2026-05-06 12:01 | 47.86961 | 11.50297 | 15170 ft | 301 kts | 256° |
| 2026-05-06 12:01 | 47.86649 | 11.47229 | 14848 ft | 298 kts | 256° |
| 2026-05-06 12:01 | 47.86445 | 11.45221 | 14632 ft | 296 kts | 256° |
| 2026-05-06 12:01 | 47.86136 | 11.42193 | 14329 ft | 294 kts | 257° |
| 2026-05-06 12:02 | 47.85828 | 11.39192 | 14013 ft | 292 kts | 257° |
| 2026-05-06 12:02 | 47.85523 | 11.36219 | 13704 ft | 290 kts | 257° |
| 2026-05-06 12:02 | 47.85217 | 11.33259 | 13467 ft | 290 kts | 257° |
| 2026-05-06 12:02 | 47.84906 | 11.30262 | 13203 ft | 294 kts | 257° |
| 2026-05-06 12:03 | 47.84595 | 11.27256 | 12891 ft | 292 kts | 257° |
| 2026-05-06 12:03 | 47.84286 | 11.24273 | 12525 ft | 291 kts | 257° |
| 2026-05-06 12:03 | 47.83978 | 11.21307 | 12183 ft | 289 kts | 257° |
| 2026-05-06 12:03 | 47.83670 | 11.18354 | 11832 ft | 288 kts | 257° |
| 2026-05-06 12:04 | 47.83364 | 11.15427 | 11484 ft | 287 kts | 257° |
| 2026-05-06 12:04 | 47.83055 | 11.12487 | 11138 ft | 287 kts | 258° |
| 2026-05-06 12:04 | 47.83057 | 11.09507 | 10782 ft | 292 kts | 276° |
| 2026-05-06 12:04 | 47.83725 | 11.06636 | 10463 ft | 296 kts | 292° |
| 2026-05-06 12:05 | 47.84673 | 11.03873 | 10148 ft | 297 kts | 294° |
| 2026-05-06 12:05 | 47.85636 | 11.01187 | 9968 ft | 291 kts | 295° |
| 2026-05-06 12:05 | 47.86583 | 10.98568 | 9843 ft | 283 kts | 295° |
| 2026-05-06 12:06 | 47.86662 | 10.98351 | 9830 ft | 283 kts | 295° |
| 2026-05-06 12:06 | 47.87485 | 10.96055 | 9574 ft | 281 kts | 294° |
| 2026-05-06 12:06 | 47.88401 | 10.93479 | 9273 ft | 282 kts | 294° |
| 2026-05-06 12:06 | 47.89309 | 10.90893 | 8938 ft | 281 kts | 295° |
| 2026-05-06 12:07 | 47.90219 | 10.88322 | 8662 ft | 280 kts | 295° |
| 2026-05-06 12:07 | 47.91120 | 10.85755 | 8369 ft | 280 kts | 294° |
| 2026-05-06 12:07 | 47.92031 | 10.83164 | 8040 ft | 284 kts | 295° |
| 2026-05-06 12:07 | 47.92946 | 10.80558 | 7734 ft | 283 kts | 295° |
| 2026-05-06 12:08 | 47.93856 | 10.77960 | 7429 ft | 283 kts | 295° |
| 2026-05-06 12:08 | 47.94765 | 10.75358 | 7129 ft | 282 kts | 295° |
| 2026-05-06 12:08 | 47.95670 | 10.72763 | 6825 ft | 282 kts | 295° |
| 2026-05-06 12:08 | 47.96568 | 10.70185 | 6609 ft | 278 kts | 296° |
| 2026-05-06 12:09 | 47.97371 | 10.67881 | 6397 ft | 275 kts | 295° |
| 2026-05-06 12:09 | 47.98247 | 10.65359 | 6201 ft | 270 kts | 296° |
| 2026-05-06 12:09 | 47.99098 | 10.62912 | 6080 ft | 262 kts | 296° |
| 2026-05-06 12:09 | 47.99925 | 10.60528 | 5959 ft | 255 kts | 296° |
| 2026-05-06 12:10 | 48.00728 | 10.58212 | 5847 ft | 247 kts | 296° |
| 2026-05-06 12:10 | 48.01506 | 10.55964 | 5741 ft | 240 kts | 296° |
| 2026-05-06 12:10 | 48.02261 | 10.53783 | 5646 ft | 232 kts | 296° |
| 2026-05-06 12:10 | 48.02981 | 10.51701 | 5567 ft | 220 kts | 296° |
| 2026-05-06 12:11 | 48.03672 | 10.49702 | 5349 ft | 213 kts | 296° |
| 2026-05-06 12:11 | 48.04340 | 10.47764 | 5144 ft | 206 kts | 297° |
| 2026-05-06 12:11 | 48.04988 | 10.45887 | 4912 ft | 200 kts | 297° |
| 2026-05-06 12:11 | 48.05600 | 10.44062 | 4707 ft | 193 kts | 291° |
| 2026-05-06 12:12 | 48.05641 | 10.42169 | 4605 ft | 183 kts | 251° |
| 2026-05-06 12:12 | 48.05175 | 10.40347 | 4366 ft | 191 kts | 245° |
| 2026-05-06 12:12 | 48.04629 | 10.38557 | 4119 ft | 188 kts | 242° |
| 2026-05-06 12:12 | 48.04011 | 10.36877 | 3878 ft | 185 kts | 239° |
| 2026-05-06 12:13 | 48.03362 | 10.35241 | 3635 ft | 182 kts | 239° |
| 2026-05-06 12:13 | 48.02715 | 10.33615 | 3391 ft | 182 kts | 239° |
| 2026-05-06 12:13 | 48.02078 | 10.32015 | 3160 ft | 175 kts | 239° |
| 2026-05-06 12:13 | 48.01486 | 10.30522 | 2931 ft | 162 kts | 239° |
| 2026-05-06 12:14 | 48.00917 | 10.29089 | 2681 ft | 158 kts | 240° |
| 2026-05-06 12:14 | 48.00362 | 10.27693 | 2432 ft | 155 kts | 243° |
| 2026-05-06 12:14 | 47.99815 | 10.26301 | 2247 ft | 158 kts | 241° |
| 2026-05-06 12:14 | 47.99252 | 10.24887 | 2069 ft | 155 kts | 241° |
| 2026-05-06 12:15 | 47.98772 | 10.23674 | 2078 ft | 108 kts | 239° |
| 2026-05-06 12:15 | 47.98497 | 10.22982 | 2079 ft | 48 kts | 239° |
| 2026-05-06 12:15 | 47.98377 | 10.22680 | 2082 ft | 15 kts | 239° |
| 2026-05-06 12:15 | 47.98371 | 10.22571 | 2082 ft | 11 kts | 308° |
| 2026-05-06 12:16 | 47.98439 | 10.22561 | 2079 ft | 12 kts | 43° |
| 2026-05-06 12:16 | 47.98487 | 10.22662 | 2079 ft | 12 kts | 52° |
| 2026-05-06 12:16 | 47.98547 | 10.22712 | 2079 ft | 11 kts | 8° |
| 2026-05-06 12:16 | 47.98625 | 10.22715 | 2078 ft | 11 kts | 358° |
| 2026-05-06 12:17 | 47.98691 | 10.22753 | 2078 ft | 9 kts | 56° |
| 2026-05-06 12:17 | 47.98727 | 10.22772 | 2076 ft | 3 kts | 2° |
| 2026-05-06 12:17 | 47.98742 | 10.22787 | 2077 ft | 3 kts | 40° |
| 2026-05-06 12:17 | 47.98747 | 10.22795 | 2077 ft | 0 kts | 50° |